Siem Pilot — LCPF — position and weather

sailwx.info

Track history (hours):
 
Tides and Currents Weather Stations Pressure Air Temp Water Temp Dewpoint Dewpoint Depression Visibility Wind Speed Wind Dir Waves Ship Positions

Siem Pilot

Last reported at 2016-Jun-23 09:33 UTC. Time now 2016-Jun-24 22:22 UTC.
Position N 37°43' E 012°14'.

Length 88 m; draft 6 m.

Type: Law enforcement. MMSI: 257458000.

Date/timePositionNaut miles runAvg speedWind from/ knotsBaromVisibWave heightAir tempDewpointWater temp
2016-Jun-23 09:33N 37°43' E 012°14'9 9.4
2016-Jun-23 08:33N 37°52' E 012°13'10 9.6
2016-Jun-23 07:33N 38°01' E 012°17'11 5.1
2016-Jun-23 05:22N 38°01' E 012°31'0 0.0
2016-Jun-23 04:25N 38°01' E 012°31'0 0.0
2016-Jun-23 03:25N 38°01' E 012°31'0 0.0
2016-Jun-23 02:28N 38°01' E 012°31'0 0.0
2016-Jun-23 01:28N 38°01' E 012°31'0 0.0
2016-Jun-23 00:16N 38°01' E 012°31'0 0.0
2016-Jun-22 23:31N 38°01' E 012°31'0 0.0
2016-Jun-22 22:28N 38°01' E 012°31'0 0.0
2016-Jun-22 21:31N 38°01' E 012°31'0 0.0
2016-Jun-22 20:28N 38°01' E 012°31'0 0.0
2016-Jun-22 19:31N 38°01' E 012°31'0 0.0
2016-Jun-22 18:19N 38°01' E 012°31'0 0.0
2016-Jun-22 17:31N 38°01' E 012°31'0 0.0
2016-Jun-22 16:19N 38°01' E 012°31'0 0.0
2016-Jun-22 15:25N 38°01' E 012°31'0 0.0
2016-Jun-22 14:10N 38°01' E 012°31'0 0.0
2016-Jun-22 13:22N 38°01' E 012°31'0 0.0
2016-Jun-22 12:28N 38°01' E 012°31'0 0.0
2016-Jun-22 11:28N 38°01' E 012°31'0 0.0
2016-Jun-22 10:25N 38°01' E 012°31'0 0.0
2016-Jun-22 09:31N 38°01' E 012°31'0 0.0
2016-Jun-22 08:31N 38°01' E 012°31'0 0.0
2016-Jun-22 07:31N 38°01' E 012°31'0 0.0
2016-Jun-22 06:31N 38°01' E 012°31'0 0.0
2016-Jun-22 05:31N 38°01' E 012°31'0 0.0
2016-Jun-22 04:22N 38°01' E 012°31'0 0.0
2016-Jun-22 03:31N 38°01' E 012°31'0 0.0
2016-Jun-22 02:22N 38°01' E 012°31'0 0.0
2016-Jun-22 01:22N 38°01' E 012°31'0 0.0
2016-Jun-22 00:25N 38°01' E 012°31'0 0.0
2016-Jun-21 23:22N 38°01' E 012°31'0 0.0
2016-Jun-21 22:28N 38°01' E 012°31'0 0.0
2016-Jun-21 21:10N 38°01' E 012°31'0 0.0
2016-Jun-21 20:25N 38°01' E 012°31'0 0.0
2016-Jun-21 19:31N 38°01' E 012°31'0 0.0
2016-Jun-21 18:31N 38°01' E 012°31'0 0.0
2016-Jun-21 17:31N 38°01' E 012°31'0 0.0
2016-Jun-21 16:31N 38°01' E 012°31'0 0.0
2016-Jun-21 15:19N 38°01' E 012°31'0 0.0
2016-Jun-21 14:31N 38°01' E 012°31'0 0.0
2016-Jun-21 13:22N 38°01' E 012°31'0 0.0
2016-Jun-21 12:22N 38°01' E 012°31'0 0.0
2016-Jun-21 11:22N 38°01' E 012°31'0 0.0
2016-Jun-21 10:25N 38°01' E 012°31'0 0.0
2016-Jun-21 09:25N 38°01' E 012°31'0 0.0
2016-Jun-21 08:28N 38°01' E 012°31'0 0.0
2016-Jun-21 07:25N 38°01' E 012°31'0 0.0
2016-Jun-21 04:31N 38°01' E 012°31'0 0.0
2016-Jun-21 03:28N 38°01' E 012°31'0 0.0
2016-Jun-21 02:31N 38°01' E 012°31'0 0.0
2016-Jun-21 01:31N 38°01' E 012°31'0 0.0
2016-Jun-21 00:31N 38°01' E 012°31'0 0.0
2016-Jun-20 23:31N 38°01' E 012°31'0 0.0
2016-Jun-20 22:07N 38°01' E 012°31'0 0.0
2016-Jun-20 21:25N 38°01' E 012°31'0 0.0
2016-Jun-20 20:25N 38°01' E 012°31'0 0.0
2016-Jun-20 19:22N 38°01' E 012°31'0 0.0
2016-Jun-20 18:28N 38°01' E 012°31'0 0.0
2016-Jun-20 17:28N 38°01' E 012°31'0 0.0
2016-Jun-20 16:28N 38°01' E 012°31'0 0.0
2016-Jun-20 15:31N 38°01' E 012°31'0 0.0
2016-Jun-20 14:28N 38°01' E 012°31'0 0.0
2016-Jun-20 13:31N 38°01' E 012°31'0 0.0
2016-Jun-20 12:31N 38°01' E 012°31'0 0.0
2016-Jun-20 10:07N 38°01' E 012°31'178 8.1
2016-Jun-19 12:12N 35°02' E 012°39'710.9
2016-Jun-19 11:33N 34°56' E 012°42'2610.6
2016-Jun-19 09:08N 34°32' E 012°54'23 1.8
2016-Jun-18 20:27N 34°20' E 013°19'1 0.1
2016-Jun-18 14:29N 34°20' E 013°18'5 0.7
2016-Jun-18 07:33N 34°20' E 013°24'3 3.1
2016-Jun-18 06:33N 34°20' E 013°27'3 2.9
2016-Jun-18 05:32N 34°20' E 013°31'17 5.5
2016-Jun-18 02:24N 34°37' E 013°25'40 1.5
2016-Jun-16 23:16N 35°13' E 013°04'7 9.8
2016-Jun-16 22:32N 35°06' E 013°06'1010.1
2016-Jun-16 21:33N 34°56' E 013°10'10 9.8
2016-Jun-16 20:33N 34°47' E 013°12'10 9.7
2016-Jun-16 19:33N 34°37' E 013°15'10 9.7
2016-Jun-16 18:33N 34°28' E 013°18'7 6.5
2016-Jun-16 17:33N 34°22' E 013°22'3 3.4
2016-Jun-16 16:33N 34°22' E 013°26'2 1.6
2016-Jun-16 15:32N 34°22' E 013°28'2 1.9
2016-Jun-16 14:33N 34°21' E 013°25'2 2.1
2016-Jun-16 13:33N 34°21' E 013°23'2 2.5
2016-Jun-16 12:33N 34°21' E 013°20'2 2.5
2016-Jun-16 11:33N 34°20' E 013°17'3 2.6
2016-Jun-16 10:33N 34°20' E 013°14'3 2.8
2016-Jun-16 09:34N 34°20' E 013°10'3 2.8
2016-Jun-16 08:33N 34°20' E 013°14'4 3.6
2016-Jun-16 07:33N 34°20' E 013°18'3 3.3
2016-Jun-16 06:33N 34°20' E 013°22'3 3.1
2016-Jun-16 05:33N 34°21' E 013°26'3 2.8
2016-Jun-16 04:33N 34°21' E 013°29'3 2.8
2016-Jun-16 03:33N 34°21' E 013°33'2 2.1
2016-Jun-16 02:33N 34°21' E 013°30'3 3.0
2016-Jun-16 01:33N 34°21' E 013°26'3 3.0
2016-Jun-16 00:33N 34°21' E 013°23'3 2.9
2016-Jun-15 23:33N 34°21' E 013°19'3 2.9
2016-Jun-15 22:33N 34°21' E 013°16'3 2.8
2016-Jun-15 21:33N 34°21' E 013°12'3 2.7
2016-Jun-15 20:33N 34°21' E 013°09'2 0.6
2016-Jun-15 16:24N 34°20' E 013°06'2 2.9
2016-Jun-15 15:33N 34°20' E 013°09'3 2.9
2016-Jun-15 14:33N 34°20' E 013°13'2 2.4
2016-Jun-15 13:33N 34°20' E 013°16'1 1.5
2016-Jun-15 12:33N 34°20' E 013°17'4 3.6
2016-Jun-15 11:33N 34°20' E 013°22'4 3.4
2016-Jun-15 10:31N 34°20' E 013°26'3 3.1
2016-Jun-15 09:28N 34°20' E 013°30'3 2.8
2016-Jun-15 08:33N 34°21' E 013°33'5 5.4
2016-Jun-15 07:33N 34°25' E 013°37'1111.4
2016-Jun-15 06:33N 34°34' E 013°46'2211.0
2016-Jun-15 04:33N 34°51' E 014°03'1111.1
2016-Jun-15 03:33N 34°60' E 014°11'1111.3
2016-Jun-15 02:33N 35°08' E 014°20'1211.8
2016-Jun-15 01:33N 35°17' E 014°30'2311.6
2016-Jun-14 23:33N 35°35' E 014°47'1211.6
2016-Jun-14 22:33N 35°45' E 014°55'1211.8
2016-Jun-14 21:31N 35°55' E 015°04'1412.1
2016-Jun-14 20:24N 36°06' E 015°13'2212.0
2016-Jun-14 18:33N 36°24' E 015°29'1211.8
2016-Jun-14 17:33N 36°34' E 015°38'8 8.2
2016-Jun-14 16:33N 36°40' E 015°44'6 6.2
2016-Jun-14 15:33N 36°46' E 015°48'5 5.3
2016-Jun-14 14:33N 36°50' E 015°52'  
Track history (hours):
 
Tides and Currents Weather Stations Pressure Air Temp Water Temp Dewpoint Dewpoint Depression Visibility Wind Speed Wind Dir Waves Ship Positions

Siem Pilot

Last reported at 2016-Jun-23 09:33 UTC. Time now 2016-Jun-24 22:22 UTC.
Position N 37°43' E 012°14'.

Length 88 m; draft 6 m.

Type: Law enforcement. MMSI: 257458000.

Date/timePositionNaut miles runAvg speedWind from/ knotsBaromVisibWave heightAir tempDewpointWater temp
2016-Jun-23 09:33N 37°43' E 012°14'9 9.4
2016-Jun-23 08:33N 37°52' E 012°13'10 9.6
2016-Jun-23 07:33N 38°01' E 012°17'11 5.1
2016-Jun-23 05:22N 38°01' E 012°31'0 0.0
2016-Jun-23 04:25N 38°01' E 012°31'0 0.0
2016-Jun-23 03:25N 38°01' E 012°31'0 0.0
2016-Jun-23 02:28N 38°01' E 012°31'0 0.0
2016-Jun-23 01:28N 38°01' E 012°31'0 0.0
2016-Jun-23 00:16N 38°01' E 012°31'0 0.0
2016-Jun-22 23:31N 38°01' E 012°31'0 0.0
2016-Jun-22 22:28N 38°01' E 012°31'0 0.0
2016-Jun-22 21:31N 38°01' E 012°31'0 0.0
2016-Jun-22 20:28N 38°01' E 012°31'0 0.0
2016-Jun-22 19:31N 38°01' E 012°31'0 0.0
2016-Jun-22 18:19N 38°01' E 012°31'0 0.0
2016-Jun-22 17:31N 38°01' E 012°31'0 0.0
2016-Jun-22 16:19N 38°01' E 012°31'0 0.0
2016-Jun-22 15:25N 38°01' E 012°31'0 0.0
2016-Jun-22 14:10N 38°01' E 012°31'0 0.0
2016-Jun-22 13:22N 38°01' E 012°31'0 0.0
2016-Jun-22 12:28N 38°01' E 012°31'0 0.0
2016-Jun-22 11:28N 38°01' E 012°31'0 0.0
2016-Jun-22 10:25N 38°01' E 012°31'0 0.0
2016-Jun-22 09:31N 38°01' E 012°31'0 0.0
2016-Jun-22 08:31N 38°01' E 012°31'0 0.0
2016-Jun-22 07:31N 38°01' E 012°31'0 0.0
2016-Jun-22 06:31N 38°01' E 012°31'0 0.0
2016-Jun-22 05:31N 38°01' E 012°31'0 0.0
2016-Jun-22 04:22N 38°01' E 012°31'0 0.0
2016-Jun-22 03:31N 38°01' E 012°31'0 0.0
2016-Jun-22 02:22N 38°01' E 012°31'0 0.0
2016-Jun-22 01:22N 38°01' E 012°31'0 0.0
2016-Jun-22 00:25N 38°01' E 012°31'0 0.0
2016-Jun-21 23:22N 38°01' E 012°31'0 0.0
2016-Jun-21 22:28N 38°01' E 012°31'0 0.0
2016-Jun-21 21:10N 38°01' E 012°31'0 0.0
2016-Jun-21 20:25N 38°01' E 012°31'0 0.0
2016-Jun-21 19:31N 38°01' E 012°31'0 0.0
2016-Jun-21 18:31N 38°01' E 012°31'0 0.0
2016-Jun-21 17:31N 38°01' E 012°31'0 0.0
2016-Jun-21 16:31N 38°01' E 012°31'0 0.0
2016-Jun-21 15:19N 38°01' E 012°31'0 0.0
2016-Jun-21 14:31N 38°01' E 012°31'0 0.0
2016-Jun-21 13:22N 38°01' E 012°31'0 0.0
2016-Jun-21 12:22N 38°01' E 012°31'0 0.0
2016-Jun-21 11:22N 38°01' E 012°31'0 0.0
2016-Jun-21 10:25N 38°01' E 012°31'0 0.0
2016-Jun-21 09:25N 38°01' E 012°31'0 0.0
2016-Jun-21 08:28N 38°01' E 012°31'0 0.0
2016-Jun-21 07:25N 38°01' E 012°31'0 0.0
2016-Jun-21 04:31N 38°01' E 012°31'0 0.0
2016-Jun-21 03:28N 38°01' E 012°31'0 0.0
2016-Jun-21 02:31N 38°01' E 012°31'0 0.0
2016-Jun-21 01:31N 38°01' E 012°31'0 0.0
2016-Jun-21 00:31N 38°01' E 012°31'0 0.0
2016-Jun-20 23:31N 38°01' E 012°31'0 0.0
2016-Jun-20 22:07N 38°01' E 012°31'0 0.0
2016-Jun-20 21:25N 38°01' E 012°31'0 0.0
2016-Jun-20 20:25N 38°01' E 012°31'0 0.0
2016-Jun-20 19:22N 38°01' E 012°31'0 0.0
2016-Jun-20 18:28N 38°01' E 012°31'0 0.0
2016-Jun-20 17:28N 38°01' E 012°31'0 0.0
2016-Jun-20 16:28N 38°01' E 012°31'0 0.0
2016-Jun-20 15:31N 38°01' E 012°31'0 0.0
2016-Jun-20 14:28N 38°01' E 012°31'0 0.0
2016-Jun-20 13:31N 38°01' E 012°31'0 0.0
2016-Jun-20 12:31N 38°01' E 012°31'0 0.0
2016-Jun-20 10:07N 38°01' E 012°31'178 8.1
2016-Jun-19 12:12N 35°02' E 012°39'710.9
2016-Jun-19 11:33N 34°56' E 012°42'2610.6
2016-Jun-19 09:08N 34°32' E 012°54'23 1.8
2016-Jun-18 20:27N 34°20' E 013°19'1 0.1
2016-Jun-18 14:29N 34°20' E 013°18'5 0.7
2016-Jun-18 07:33N 34°20' E 013°24'3 3.1
2016-Jun-18 06:33N 34°20' E 013°27'3 2.9
2016-Jun-18 05:32N 34°20' E 013°31'17 5.5
2016-Jun-18 02:24N 34°37' E 013°25'40 1.5
2016-Jun-16 23:16N 35°13' E 013°04'7 9.8
2016-Jun-16 22:32N 35°06' E 013°06'1010.1
2016-Jun-16 21:33N 34°56' E 013°10'10 9.8
2016-Jun-16 20:33N 34°47' E 013°12'10 9.7
2016-Jun-16 19:33N 34°37' E 013°15'10 9.7
2016-Jun-16 18:33N 34°28' E 013°18'7 6.5
2016-Jun-16 17:33N 34°22' E 013°22'3 3.4
2016-Jun-16 16:33N 34°22' E 013°26'2 1.6
2016-Jun-16 15:32N 34°22' E 013°28'2 1.9
2016-Jun-16 14:33N 34°21' E 013°25'2 2.1
2016-Jun-16 13:33N 34°21' E 013°23'2 2.5
2016-Jun-16 12:33N 34°21' E 013°20'2 2.5
2016-Jun-16 11:33N 34°20' E 013°17'3 2.6
2016-Jun-16 10:33N 34°20' E 013°14'3 2.8
2016-Jun-16 09:34N 34°20' E 013°10'3 2.8
2016-Jun-16 08:33N 34°20' E 013°14'4 3.6
2016-Jun-16 07:33N 34°20' E 013°18'3 3.3
2016-Jun-16 06:33N 34°20' E 013°22'3 3.1
2016-Jun-16 05:33N 34°21' E 013°26'3 2.8
2016-Jun-16 04:33N 34°21' E 013°29'3 2.8
2016-Jun-16 03:33N 34°21' E 013°33'2 2.1
2016-Jun-16 02:33N 34°21' E 013°30'3 3.0
2016-Jun-16 01:33N 34°21' E 013°26'3 3.0
2016-Jun-16 00:33N 34°21' E 013°23'3 2.9
2016-Jun-15 23:33N 34°21' E 013°19'3 2.9
2016-Jun-15 22:33N 34°21' E 013°16'3 2.8
2016-Jun-15 21:33N 34°21' E 013°12'3 2.7
2016-Jun-15 20:33N 34°21' E 013°09'2 0.6
2016-Jun-15 16:24N 34°20' E 013°06'2 2.9
2016-Jun-15 15:33N 34°20' E 013°09'3 2.9
2016-Jun-15 14:33N 34°20' E 013°13'2 2.4
2016-Jun-15 13:33N 34°20' E 013°16'1 1.5
2016-Jun-15 12:33N 34°20' E 013°17'4 3.6
2016-Jun-15 11:33N 34°20' E 013°22'4 3.4
2016-Jun-15 10:31N 34°20' E 013°26'3 3.1
2016-Jun-15 09:28N 34°20' E 013°30'3 2.8
2016-Jun-15 08:33N 34°21' E 013°33'5 5.4
2016-Jun-15 07:33N 34°25' E 013°37'1111.4
2016-Jun-15 06:33N 34°34' E 013°46'2211.0
2016-Jun-15 04:33N 34°51' E 014°03'1111.1
2016-Jun-15 03:33N 34°60' E 014°11'1111.3
2016-Jun-15 02:33N 35°08' E 014°20'1211.8
2016-Jun-15 01:33N 35°17' E 014°30'2311.6
2016-Jun-14 23:33N 35°35' E 014°47'1211.6
2016-Jun-14 22:33N 35°45' E 014°55'1211.8
2016-Jun-14 21:31N 35°55' E 015°04'1412.1
2016-Jun-14 20:24N 36°06' E 015°13'2212.0
2016-Jun-14 18:33N 36°24' E 015°29'1211.8
2016-Jun-14 17:33N 36°34' E 015°38'8 8.2
2016-Jun-14 16:33N 36°40' E 015°44'6 6.2
2016-Jun-14 15:33N 36°46' E 015°48'5 5.3
2016-Jun-14 14:33N 36°50' E 015°52'  

Dump ship's entire track history